sensor_id;sensor_type;location;lat;lon;timestamp;pressure;altitude;pressure_sealevel;temperature;humidity
12987;BME280;58897;51.960;5.582;2022-12-18T00:01:37;102560.16;;;-3.71;100.00
12987;BME280;58897;51.960;5.582;2022-12-18T00:04:06;102564.44;;;-3.65;100.00
12987;BME280;58897;51.960;5.582;2022-12-18T00:06:34;102564.16;;;-3.53;100.00
12987;BME280;58897;51.960;5.582;2022-12-18T00:09:02;102570.81;;;-3.77;100.00
12987;BME280;58897;51.960;5.582;2022-12-18T00:11:30;102562.13;;;-3.82;100.00
12987;BME280;58897;51.960;5.582;2022-12-18T00:13:58;102560.41;;;-3.85;100.00
12987;BME280;58897;51.960;5.582;2022-12-18T00:16:26;102553.53;;;-3.93;100.00
12987;BME280;58897;51.960;5.582;2022-12-18T00:18:56;102555.41;;;-3.98;100.00
12987;BME280;58897;51.960;5.582;2022-12-18T00:21:22;102545.28;;;-3.77;100.00
12987;BME280;58897;51.960;5.582;2022-12-18T00:23:50;102552.81;;;-3.58;100.00
12987;BME280;58897;51.960;5.582;2022-12-18T00:26:20;102544.78;;;-3.54;100.00
12987;BME280;58897;51.960;5.582;2022-12-18T00:28:48;102548.97;;;-3.44;100.00
12987;BME280;58897;51.960;5.582;2022-12-18T00:31:18;102555.13;;;-3.42;100.00
12987;BME280;58897;51.960;5.582;2022-12-18T00:33:45;102551.00;;;-3.55;100.00
12987;BME280;58897;51.960;5.582;2022-12-18T00:36:19;102560.94;;;-4.12;100.00
12987;BME280;58897;51.960;5.582;2022-12-18T00:38:47;102569.00;;;-4.18;100.00
12987;BME280;58897;51.960;5.582;2022-12-18T00:41:15;102560.34;;;-3.82;100.00
12987;BME280;58897;51.960;5.582;2022-12-18T00:44:06;102542.19;;;-3.98;100.00
12987;BME280;58897;51.960;5.582;2022-12-18T00:46:32;102529.72;;;-3.89;100.00
12987;BME280;58897;51.960;5.582;2022-12-18T00:48:59;102535.91;;;-3.91;100.00
12987;BME280;58897;51.960;5.582;2022-12-18T00:51:26;102534.53;;;-4.12;100.00
12987;BME280;58897;51.960;5.582;2022-12-18T00:53:53;102540.38;;;-3.95;100.00
12987;BME280;58897;51.960;5.582;2022-12-18T00:56:23;102531.53;;;-3.92;100.00
12987;BME280;58897;51.960;5.582;2022-12-18T00:58:50;102537.47;;;-3.81;100.00
12987;BME280;58897;51.960;5.582;2022-12-18T01:01:17;102530.34;;;-3.78;100.00
12987;BME280;58897;51.960;5.582;2022-12-18T01:03:43;102537.75;;;-3.95;100.00
12987;BME280;58897;51.960;5.582;2022-12-18T01:06:12;102545.59;;;-3.92;100.00
12987;BME280;58897;51.960;5.582;2022-12-18T01:08:39;102544.34;;;-4.18;100.00
12987;BME280;58897;51.960;5.582;2022-12-18T01:11:10;102548.56;;;-4.07;100.00
12987;BME280;58897;51.960;5.582;2022-12-18T01:13:38;102532.88;;;-4.16;100.00
12987;BME280;58897;51.960;5.582;2022-12-18T01:16:06;102538.16;;;-4.16;100.00
12987;BME280;58897;51.960;5.582;2022-12-18T01:18:33;102533.06;;;-4.26;100.00
12987;BME280;58897;51.960;5.582;2022-12-18T01:20:59;102532.66;;;-4.51;100.00
12987;BME280;58897;51.960;5.582;2022-12-18T01:23:27;102543.03;;;-4.42;100.00
12987;BME280;58897;51.960;5.582;2022-12-18T01:25:53;102536.69;;;-4.30;100.00
12987;BME280;58897;51.960;5.582;2022-12-18T01:28:19;102548.31;;;-4.42;100.00
12987;BME280;58897;51.960;5.582;2022-12-18T01:30:46;102552.84;;;-4.49;100.00
12987;BME280;58897;51.960;5.582;2022-12-18T01:33:12;102555.34;;;-4.43;100.00
12987;BME280;58897;51.960;5.582;2022-12-18T01:35:42;102558.31;;;-4.59;100.00
12987;BME280;58897;51.960;5.582;2022-12-18T01:38:09;102556.47;;;-4.56;100.00
12987;BME280;58897;51.960;5.582;2022-12-18T01:40:36;102558.34;;;-4.62;100.00
12987;BME280;58897;51.960;5.582;2022-12-18T01:43:03;102557.84;;;-4.35;100.00
12987;BME280;58897;51.960;5.582;2022-12-18T01:45:31;102559.41;;;-4.23;100.00
12987;BME280;58897;51.960;5.582;2022-12-18T01:48:01;102551.63;;;-4.31;100.00
12987;BME280;58897;51.960;5.582;2022-12-18T01:50:36;102559.00;;;-4.50;100.00
12987;BME280;58897;51.960;5.582;2022-12-18T01:53:07;102549.59;;;-4.17;100.00
12987;BME280;58897;51.960;5.582;2022-12-18T01:55:50;102561.53;;;-4.44;100.00
12987;BME280;58897;51.960;5.582;2022-12-18T01:58:20;102562.38;;;-4.43;100.00
12987;BME280;58897;51.960;5.582;2022-12-18T02:00:48;102556.13;;;-4.36;100.00
12987;BME280;58897;51.960;5.582;2022-12-18T02:03:14;102555.13;;;-4.29;100.00
12987;BME280;58897;51.960;5.582;2022-12-18T02:08:37;102556.47;;;-4.56;100.00
12987;BME280;58897;51.960;5.582;2022-12-18T02:13:45;102566.13;;;-4.56;100.00
12987;BME280;58897;51.960;5.582;2022-12-18T02:16:20;102563.56;;;-4.59;100.00
12987;BME280;58897;51.960;5.582;2022-12-18T02:18:56;102560.97;;;-4.62;100.00
12987;BME280;58897;51.960;5.582;2022-12-18T02:21:36;102557.28;;;-4.52;100.00
12987;BME280;58897;51.960;5.582;2022-12-18T02:24:21;102561.56;;;-4.45;100.00
12987;BME280;58897;51.960;5.582;2022-12-18T02:26:55;102561.78;;;-4.59;100.00
12987;BME280;58897;51.960;5.582;2022-12-18T02:29:26;102554.75;;;-4.58;100.00
12987;BME280;58897;51.960;5.582;2022-12-18T02:31:58;102557.56;;;-4.69;100.00
12987;BME280;58897;51.960;5.582;2022-12-18T02:34:31;102560.72;;;-4.47;100.00
12987;BME280;58897;51.960;5.582;2022-12-18T02:37:01;102564.19;;;-4.45;100.00
12987;BME280;58897;51.960;5.582;2022-12-18T02:39:29;102565.75;;;-4.35;100.00
12987;BME280;58897;51.960;5.582;2022-12-18T02:41:57;102553.03;;;-4.59;100.00
12987;BME280;58897;51.960;5.582;2022-12-18T02:44:25;102557.19;;;-4.46;100.00
12987;BME280;58897;51.960;5.582;2022-12-18T02:46:52;102552.66;;;-4.38;100.00
12987;BME280;58897;51.960;5.582;2022-12-18T02:52:16;102556.31;;;-4.47;100.00
12987;BME280;58897;51.960;5.582;2022-12-18T02:57:35;102533.03;;;-4.23;100.00
12987;BME280;58897;51.960;5.582;2022-12-18T03:00:10;102542.69;;;-4.24;100.00
12987;BME280;58897;51.960;5.582;2022-12-18T03:05:20;102548.28;;;-4.41;100.00
12987;BME280;58897;51.960;5.582;2022-12-18T03:07:56;102547.63;;;-4.53;100.00
12987;BME280;58897;51.960;5.582;2022-12-18T03:10:28;102529.91;;;-4.45;100.00
12987;BME280;58897;51.960;5.582;2022-12-18T03:13:05;102531.84;;;-4.55;100.00
12987;BME280;58897;51.960;5.582;2022-12-18T03:16:02;102518.47;;;-4.44;100.00
12987;BME280;58897;51.960;5.582;2022-12-18T03:18:48;102516.59;;;-4.39;100.00
12987;BME280;58897;51.960;5.582;2022-12-18T03:21:17;102516.56;;;-4.36;100.00
12987;BME280;58897;51.960;5.582;2022-12-18T03:23:49;102524.41;;;-4.33;100.00
12987;BME280;58897;51.960;5.582;2022-12-18T03:26:25;102521.00;;;-4.38;100.00
12987;BME280;58897;51.960;5.582;2022-12-18T03:28:59;102519.16;;;-4.34;100.00
12987;BME280;58897;51.960;5.582;2022-12-18T03:31:29;102518.34;;;-4.38;100.00
12987;BME280;58897;51.960;5.582;2022-12-18T03:34:01;102492.75;;;-4.33;100.00
12987;BME280;58897;51.960;5.582;2022-12-18T03:36:30;102493.34;;;-4.65;100.00
12987;BME280;58897;51.960;5.582;2022-12-18T03:38:56;102503.91;;;-4.65;100.00
12987;BME280;58897;51.960;5.582;2022-12-18T03:41:30;102494.88;;;-4.52;100.00
12987;BME280;58897;51.960;5.582;2022-12-18T03:46:40;102483.34;;;-4.48;100.00
12987;BME280;58897;51.960;5.582;2022-12-18T03:49:22;102487.00;;;-4.56;100.00
12987;BME280;58897;51.960;5.582;2022-12-18T03:52:01;102491.25;;;-4.46;100.00
12987;BME280;58897;51.960;5.582;2022-12-18T03:54:30;102486.81;;;-4.46;100.00
12987;BME280;58897;51.960;5.582;2022-12-18T03:57:10;102491.78;;;-4.75;100.00
12987;BME280;58897;51.960;5.582;2022-12-18T03:59:39;102483.78;;;-4.70;100.00
12987;BME280;58897;51.960;5.582;2022-12-18T04:02:07;102484.22;;;-4.47;100.00
12987;BME280;58897;51.960;5.582;2022-12-18T04:04:37;102483.13;;;-4.35;100.00
12987;BME280;58897;51.960;5.582;2022-12-18T04:07:05;102476.06;;;-4.33;100.00
12987;BME280;58897;51.960;5.582;2022-12-18T04:09:34;102480.50;;;-4.37;100.00
12987;BME280;58897;51.960;5.582;2022-12-18T04:12:02;102473.38;;;-4.32;100.00
12987;BME280;58897;51.960;5.582;2022-12-18T04:14:28;102466.19;;;-4.24;100.00
12987;BME280;58897;51.960;5.582;2022-12-18T04:16:55;102471.88;;;-4.45;100.00
12987;BME280;58897;51.960;5.582;2022-12-18T04:19:21;102470.88;;;-4.40;100.00
12987;BME280;58897;51.960;5.582;2022-12-18T04:21:48;102467.72;;;-4.58;100.00
12987;BME280;58897;51.960;5.582;2022-12-18T04:24:14;102460.22;;;-4.35;100.00
12987;BME280;58897;51.960;5.582;2022-12-18T04:26:41;102460.34;;;-4.40;100.00
12987;BME280;58897;51.960;5.582;2022-12-18T04:29:07;102462.84;;;-4.33;100.00
12987;BME280;58897;51.960;5.582;2022-12-18T04:31:33;102463.63;;;-4.28;100.00
12987;BME280;58897;51.960;5.582;2022-12-18T04:34:00;102472.06;;;-4.56;100.00
12987;BME280;58897;51.960;5.582;2022-12-18T04:36:27;102471.66;;;-4.34;100.00
12987;BME280;58897;51.960;5.582;2022-12-18T04:38:53;102472.84;;;-4.49;100.00
12987;BME280;58897;51.960;5.582;2022-12-18T04:41:20;102471.56;;;-4.28;100.00
12987;BME280;58897;51.960;5.582;2022-12-18T04:43:46;102461.81;;;-4.25;100.00
12987;BME280;58897;51.960;5.582;2022-12-18T04:46:13;102469.13;;;-4.41;100.00
12987;BME280;58897;51.960;5.582;2022-12-18T04:48:40;102479.56;;;-4.34;100.00
12987;BME280;58897;51.960;5.582;2022-12-18T04:51:06;102483.91;;;-4.32;100.00
12987;BME280;58897;51.960;5.582;2022-12-18T04:53:33;102493.78;;;-4.42;100.00
12987;BME280;58897;51.960;5.582;2022-12-18T04:56:10;102489.34;;;-4.38;100.00
12987;BME280;58897;51.960;5.582;2022-12-18T04:58:38;102488.41;;;-4.35;100.00
12987;BME280;58897;51.960;5.582;2022-12-18T05:01:05;102485.97;;;-4.48;100.00
12987;BME280;58897;51.960;5.582;2022-12-18T05:03:34;102492.03;;;-4.41;100.00
12987;BME280;58897;51.960;5.582;2022-12-18T05:06:02;102491.44;;;-4.58;100.00
12987;BME280;58897;51.960;5.582;2022-12-18T05:08:28;102500.84;;;-4.42;100.00
12987;BME280;58897;51.960;5.582;2022-12-18T05:11:06;102495.81;;;-4.56;100.00
12987;BME280;58897;51.960;5.582;2022-12-18T05:13:34;102510.53;;;-4.44;100.00
12987;BME280;58897;51.960;5.582;2022-12-18T05:16:02;102510.53;;;-4.44;100.00
12987;BME280;58897;51.960;5.582;2022-12-18T05:18:29;102513.13;;;-4.41;100.00
12987;BME280;58897;51.960;5.582;2022-12-18T05:20:56;102515.69;;;-4.37;100.00
12987;BME280;58897;51.960;5.582;2022-12-18T05:23:24;102518.34;;;-4.38;100.00
12987;BME280;58897;51.960;5.582;2022-12-18T05:25:59;102532.63;;;-4.50;100.00
12987;BME280;58897;51.960;5.582;2022-12-18T05:28:28;102530.00;;;-4.50;100.00
12987;BME280;58897;51.960;5.582;2022-12-18T05:30:57;102529.16;;;-4.53;100.00
12987;BME280;58897;51.960;5.582;2022-12-18T05:33:26;102533.78;;;-4.64;100.00
12987;BME280;58897;51.960;5.582;2022-12-18T05:35:58;102542.78;;;-4.79;100.00
12987;BME280;58897;51.960;5.582;2022-12-18T05:38:26;102538.53;;;-4.86;100.00
12987;BME280;58897;51.960;5.582;2022-12-18T05:40:53;102541.91;;;-4.78;100.00
12987;BME280;58897;51.960;5.582;2022-12-18T05:43:20;102533.78;;;-4.64;100.00
12987;BME280;58897;51.960;5.582;2022-12-18T05:45:48;102526.22;;;-4.87;100.00
12987;BME280;58897;51.960;5.582;2022-12-18T05:48:15;102518.13;;;-4.75;100.00
12987;BME280;58897;51.960;5.582;2022-12-18T05:50:44;102516.28;;;-4.71;100.00
12987;BME280;58897;51.960;5.582;2022-12-18T05:53:16;102515.69;;;-4.87;100.00
12987;BME280;58897;51.960;5.582;2022-12-18T05:55:44;102501.75;;;-4.95;100.00
12987;BME280;58897;51.960;5.582;2022-12-18T05:58:12;102493.34;;;-4.65;100.00
12987;BME280;58897;51.960;5.582;2022-12-18T06:00:41;102496.13;;;-4.74;100.00
12987;BME280;58897;51.960;5.582;2022-12-18T06:03:09;102496.03;;;-4.68;100.00
12987;BME280;58897;51.960;5.582;2022-12-18T06:05:37;102490.72;;;-4.66;100.00
12987;BME280;58897;51.960;5.582;2022-12-18T06:08:04;102489.94;;;-4.71;100.00
12987;BME280;58897;51.960;5.582;2022-12-18T06:10:31;102477.66;;;-4.72;100.00
12987;BME280;58897;51.960;5.582;2022-12-18T06:12:58;102481.13;;;-4.72;100.00
12987;BME280;58897;51.960;5.582;2022-12-18T06:15:24;102473.19;;;-4.69;100.00
12987;BME280;58897;51.960;5.582;2022-12-18T06:17:51;102474.19;;;-4.76;100.00
12987;BME280;58897;51.960;5.582;2022-12-18T06:20:17;102476.00;;;-4.78;100.00
12987;BME280;58897;51.960;5.582;2022-12-18T06:22:44;102479.38;;;-4.71;100.00
12987;BME280;58897;51.960;5.582;2022-12-18T06:25:11;102479.38;;;-4.70;100.00
12987;BME280;58897;51.960;5.582;2022-12-18T06:27:37;102465.22;;;-4.66;100.00
12987;BME280;58897;51.960;5.582;2022-12-18T06:30:06;102464.34;;;-4.66;100.00
12987;BME280;58897;51.960;5.582;2022-12-18T06:32:32;102465.22;;;-4.64;100.00
12987;BME280;58897;51.960;5.582;2022-12-18T06:34:59;102458.19;;;-4.65;100.00
12987;BME280;58897;51.960;5.582;2022-12-18T06:37:25;102457.06;;;-4.52;100.00
12987;BME280;58897;51.960;5.582;2022-12-18T06:39:53;102460.59;;;-4.53;100.00
12987;BME280;58897;51.960;5.582;2022-12-18T06:42:20;102462.28;;;-4.49;100.00
12987;BME280;58897;51.960;5.582;2022-12-18T06:44:46;102464.00;;;-4.47;100.00
12987;BME280;58897;51.960;5.582;2022-12-18T06:47:12;102456.19;;;-4.51;100.00
12987;BME280;58897;51.960;5.582;2022-12-18T06:49:39;102446.47;;;-4.51;100.00
12987;BME280;58897;51.960;5.582;2022-12-18T06:52:06;102443.66;;;-4.42;100.00
12987;BME280;58897;51.960;5.582;2022-12-18T06:54:32;102446.22;;;-4.37;100.00
12987;BME280;58897;51.960;5.582;2022-12-18T06:56:58;102436.53;;;-4.37;100.00
12987;BME280;58897;51.960;5.582;2022-12-18T06:59:25;102433.13;;;-4.42;100.00
12987;BME280;58897;51.960;5.582;2022-12-18T07:01:53;102434.22;;;-4.53;100.00
12987;BME280;58897;51.960;5.582;2022-12-18T07:04:20;102425.22;;;-4.43;100.00
12987;BME280;58897;51.960;5.582;2022-12-18T07:06:46;102422.44;;;-4.35;100.00
12987;BME280;58897;51.960;5.582;2022-12-18T07:09:12;102424.00;;;-4.27;100.00
12987;BME280;58897;51.960;5.582;2022-12-18T07:11:39;102435.50;;;-4.29;100.00
12987;BME280;58897;51.960;5.582;2022-12-18T07:14:05;102425.94;;;-4.35;100.00
12987;BME280;58897;51.960;5.582;2022-12-18T07:16:32;102431.97;;;-4.30;100.00
12987;BME280;58897;51.960;5.582;2022-12-18T07:18:58;102428.66;;;-4.40;100.00
12987;BME280;58897;51.960;5.582;2022-12-18T07:21:25;102416.09;;;-4.27;100.00
12987;BME280;58897;51.960;5.582;2022-12-18T07:23:52;102413.38;;;-4.22;100.00
12987;BME280;58897;51.960;5.582;2022-12-18T07:26:20;102409.13;;;-4.29;100.00
12987;BME280;58897;51.960;5.582;2022-12-18T07:28:47;102409.06;;;-4.26;100.00
12987;BME280;58897;51.960;5.582;2022-12-18T07:31:16;102397.13;;;-4.44;100.00
12987;BME280;58897;51.960;5.582;2022-12-18T07:33:43;102404.94;;;-4.40;100.00
12987;BME280;58897;51.960;5.582;2022-12-18T07:36:11;102398.81;;;-4.42;100.00
12987;BME280;58897;51.960;5.582;2022-12-18T07:38:37;102397.88;;;-4.39;100.00
12987;BME280;58897;51.960;5.582;2022-12-18T07:41:06;102390.66;;;-4.29;100.00
12987;BME280;58897;51.960;5.582;2022-12-18T07:43:34;102387.00;;;-4.24;100.00
12987;BME280;58897;51.960;5.582;2022-12-18T07:46:00;102381.03;;;-4.32;100.00
12987;BME280;58897;51.960;5.582;2022-12-18T07:48:28;102370.22;;;-4.20;100.00
12987;BME280;58897;51.960;5.582;2022-12-18T07:51:02;102361.28;;;-4.14;100.00
12987;BME280;58897;51.960;5.582;2022-12-18T07:53:31;102365.72;;;-4.15;100.00
12987;BME280;58897;51.960;5.582;2022-12-18T07:55:59;102363.84;;;-4.10;100.00
12987;BME280;58897;51.960;5.582;2022-12-18T07:58:46;102363.59;;;-3.99;100.00
12987;BME280;58897;51.960;5.582;2022-12-18T08:01:13;102360.97;;;-3.99;100.00
12987;BME280;58897;51.960;5.582;2022-12-18T08:03:40;102363.63;;;-4.01;100.00
12987;BME280;58897;51.960;5.582;2022-12-18T08:06:09;102361.50;;;-3.84;100.00
12987;BME280;58897;51.960;5.582;2022-12-18T08:08:36;102363.97;;;-3.78;100.00
12987;BME280;58897;51.960;5.582;2022-12-18T08:11:03;102356.03;;;-3.76;100.00
12987;BME280;58897;51.960;5.582;2022-12-18T08:13:29;102349.63;;;-3.66;100.00
12987;BME280;58897;51.960;5.582;2022-12-18T08:16:03;102346.84;;;-3.61;100.00
12987;BME280;58897;51.960;5.582;2022-12-18T08:18:32;102347.50;;;-3.52;100.00
12987;BME280;58897;51.960;5.582;2022-12-18T08:21:10;102346.53;;;-3.48;100.00
12987;BME280;58897;51.960;5.582;2022-12-18T08:23:37;102347.19;;;-3.40;100.00
12987;BME280;58897;51.960;5.582;2022-12-18T08:26:09;102339.22;;;-3.38;100.00
12987;BME280;58897;51.960;5.582;2022-12-18T08:28:36;102343.75;;;-3.42;100.00
12987;BME280;58897;51.960;5.582;2022-12-18T08:31:02;102360.41;;;-3.40;100.00
12987;BME280;58897;51.960;5.582;2022-12-18T08:33:30;102367.22;;;-3.66;100.00
12987;BME280;58897;51.960;5.582;2022-12-18T08:35:58;102375.97;;;-3.63;100.00
12987;BME280;58897;51.960;5.582;2022-12-18T08:38:25;102371.19;;;-3.49;100.00
12987;BME280;58897;51.960;5.582;2022-12-18T08:41:09;102356.56;;;-3.28;100.00
12987;BME280;58897;51.960;5.582;2022-12-18T08:43:36;102356.22;;;-3.15;100.00
12987;BME280;58897;51.960;5.582;2022-12-18T08:46:23;102363.13;;;-3.09;100.00
12987;BME280;58897;51.960;5.582;2022-12-18T08:48:50;102365.97;;;-3.17;100.00
12987;BME280;58897;51.960;5.582;2022-12-18T08:51:17;102357.19;;;-3.17;100.00
12987;BME280;58897;51.960;5.582;2022-12-18T08:53:45;102358.66;;;-3.05;100.00
12987;BME280;58897;51.960;5.582;2022-12-18T08:56:12;102353.78;;;-3.22;100.00
12987;BME280;58897;51.960;5.582;2022-12-18T08:58:39;102358.69;;;-2.75;100.00
12987;BME280;58897;51.960;5.582;2022-12-18T09:01:08;102357.16;;;-2.53;100.00
12987;BME280;58897;51.960;5.582;2022-12-18T09:03:35;102364.38;;;-2.28;100.00
12987;BME280;58897;51.960;5.582;2022-12-18T09:06:02;102353.78;;;-2.27;100.00
12987;BME280;58897;51.960;5.582;2022-12-18T09:08:29;102350.19;;;-1.97;100.00
12987;BME280;58897;51.960;5.582;2022-12-18T09:10:56;102355.91;;;-1.82;100.00
12987;BME280;58897;51.960;5.582;2022-12-18T09:13:22;102361.56;;;-1.93;100.00
12987;BME280;58897;51.960;5.582;2022-12-18T09:15:53;102360.63;;;-1.92;100.00
12987;BME280;58897;51.960;5.582;2022-12-18T09:18:22;102370.41;;;-1.94;100.00
12987;BME280;58897;51.960;5.582;2022-12-18T09:20:49;102370.88;;;-1.80;100.00
12987;BME280;58897;51.960;5.582;2022-12-18T09:23:18;102370.75;;;-1.77;100.00
12987;BME280;58897;51.960;5.582;2022-12-18T09:25:44;102373.53;;;-1.81;100.00
12987;BME280;58897;51.960;5.582;2022-12-18T09:28:16;102371.19;;;-1.91;100.00
12987;BME280;58897;51.960;5.582;2022-12-18T09:30:47;102359.50;;;-1.85;100.00
12987;BME280;58897;51.960;5.582;2022-12-18T09:33:14;102354.66;;;-1.71;100.00
12987;BME280;58897;51.960;5.582;2022-12-18T09:35:42;102352.78;;;-1.67;100.00
12987;BME280;58897;51.960;5.582;2022-12-18T09:38:15;102355.47;;;-1.69;100.00
12987;BME280;58897;51.960;5.582;2022-12-18T09:40:53;102352.63;;;-1.63;100.00
12987;BME280;58897;51.960;5.582;2022-12-18T09:43:30;102333.69;;;-1.51;100.00
12987;BME280;58897;51.960;5.582;2022-12-18T09:46:04;102332.97;;;-1.30;100.00
12987;BME280;58897;51.960;5.582;2022-12-18T09:48:35;102328.19;;;-1.45;99.77
12987;BME280;58897;51.960;5.582;2022-12-18T09:51:11;102319.00;;;-1.35;100.00
12987;BME280;58897;51.960;5.582;2022-12-18T09:53:40;102321.97;;;-1.44;100.00
12987;BME280;58897;51.960;5.582;2022-12-18T09:56:12;102321.66;;;-1.61;100.00
12987;BME280;58897;51.960;5.582;2022-12-18T09:58:47;102326.03;;;-1.88;100.00
12987;BME280;58897;51.960;5.582;2022-12-18T10:01:19;102310.50;;;-1.70;100.00
12987;BME280;58897;51.960;5.582;2022-12-18T10:03:47;102314.63;;;-1.62;100.00
12987;BME280;58897;51.960;5.582;2022-12-18T10:06:19;102318.88;;;-1.84;100.00
12987;BME280;58897;51.960;5.582;2022-12-18T10:09:16;102307.88;;;-1.72;100.00
12987;BME280;58897;51.960;5.582;2022-12-18T10:12:08;102310.31;;;-1.64;100.00
12987;BME280;58897;51.960;5.582;2022-12-18T10:14:52;102300.78;;;-1.44;100.00
12987;BME280;58897;51.960;5.582;2022-12-18T10:20:27;102309.88;;;-1.52;100.00
12987;BME280;58897;51.960;5.582;2022-12-18T10:23:17;102300.63;;;-1.41;100.00
12987;BME280;58897;51.960;5.582;2022-12-18T10:26:04;102287.25;;;-1.36;100.00
12987;BME280;58897;51.960;5.582;2022-12-18T10:28:34;102283.28;;;-1.49;100.00
12987;BME280;58897;51.960;5.582;2022-12-18T10:31:02;102296.03;;;-1.60;100.00
12987;BME280;58897;51.960;5.582;2022-12-18T10:33:30;102304.97;;;-1.91;100.00
12987;BME280;58897;51.960;5.582;2022-12-18T10:35:58;102296.91;;;-1.88;100.00
12987;BME280;58897;51.960;5.582;2022-12-18T10:38:27;102285.59;;;-1.65;100.00
12987;BME280;58897;51.960;5.582;2022-12-18T10:41:03;102281.69;;;-1.55;100.00
12987;BME280;58897;51.960;5.582;2022-12-18T10:43:33;102278.44;;;-1.63;100.00
12987;BME280;58897;51.960;5.582;2022-12-18T10:46:20;102275.59;;;-1.57;100.00
12987;BME280;58897;51.960;5.582;2022-12-18T10:51:31;102264.88;;;-1.54;100.00
12987;BME280;58897;51.960;5.582;2022-12-18T10:54:04;102254.03;;;-1.46;100.00
12987;BME280;58897;51.960;5.582;2022-12-18T10:56:34;102251.41;;;-1.48;100.00
12987;BME280;58897;51.960;5.582;2022-12-18T10:59:05;102247.00;;;-1.47;100.00
12987;BME280;58897;51.960;5.582;2022-12-18T11:02:01;102253.13;;;-1.71;100.00
12987;BME280;58897;51.960;5.582;2022-12-18T11:04:31;102247.56;;;-1.64;100.00
12987;BME280;58897;51.960;5.582;2022-12-18T11:07:06;102240.78;;;-1.46;100.00
12987;BME280;58897;51.960;5.582;2022-12-18T11:09:34;102242.97;;;-1.59;100.00
12987;BME280;58897;51.960;5.582;2022-12-18T11:12:26;102237.19;;;-1.45;100.00
12987;BME280;58897;51.960;5.582;2022-12-18T11:14:53;102234.63;;;-1.48;100.00
12987;BME280;58897;51.960;5.582;2022-12-18T11:17:35;102226.88;;;-1.28;100.00
12987;BME280;58897;51.960;5.582;2022-12-18T11:20:04;102218.66;;;-1.20;100.00
12987;BME280;58897;51.960;5.582;2022-12-18T11:22:35;102215.81;;;-1.16;100.00
12987;BME280;58897;51.960;5.582;2022-12-18T11:28:03;102203.47;;;-1.17;100.00
12987;BME280;58897;51.960;5.582;2022-12-18T11:30:35;102210.69;;;-1.45;100.00
12987;BME280;58897;51.960;5.582;2022-12-18T11:33:13;102206.50;;;-1.28;100.00
12987;BME280;58897;51.960;5.582;2022-12-18T11:38:43;102208.72;;;-1.40;100.00
12987;BME280;58897;51.960;5.582;2022-12-18T11:41:37;102218.84;;;-1.27;100.00
12987;BME280;58897;51.960;5.582;2022-12-18T11:44:32;102214.16;;;-1.18;100.00
12987;BME280;58897;51.960;5.582;2022-12-18T11:49:36;102202.72;;;-1.20;100.00
12987;BME280;58897;51.960;5.582;2022-12-18T11:52:25;102193.91;;;-1.21;100.00
12987;BME280;58897;51.960;5.582;2022-12-18T11:54:58;102200.72;;;-1.14;100.00
12987;BME280;58897;51.960;5.582;2022-12-18T12:00:25;102186.38;;;-1.08;100.00
12987;BME280;58897;51.960;5.582;2022-12-18T12:03:17;102174.56;;;-1.00;100.00
12987;BME280;58897;51.960;5.582;2022-12-18T12:08:48;102169.06;;;-1.18;100.00
12987;BME280;58897;51.960;5.582;2022-12-18T12:14:05;102163.75;;;-1.18;100.00
12987;BME280;58897;51.960;5.582;2022-12-18T12:16:58;102151.09;;;-1.10;99.76
12987;BME280;58897;51.960;5.582;2022-12-18T12:19:39;102145.41;;;-1.01;100.00
12987;BME280;58897;51.960;5.582;2022-12-18T12:22:17;102156.91;;;-1.01;100.00
12987;BME280;58897;51.960;5.582;2022-12-18T12:27:54;102152.78;;;-1.09;98.50
12987;BME280;58897;51.960;5.582;2022-12-18T12:33:42;102129.66;;;-0.83;99.65
12987;BME280;58897;51.960;5.582;2022-12-18T12:36:22;102132.50;;;-0.87;100.00
12987;BME280;58897;51.960;5.582;2022-12-18T12:38:56;102137.81;;;-0.87;100.00
12987;BME280;58897;51.960;5.582;2022-12-18T12:41:26;102125.31;;;-0.84;98.55
12987;BME280;58897;51.960;5.582;2022-12-18T12:44:43;102114.16;;;-0.93;98.58
12987;BME280;58897;51.960;5.582;2022-12-18T12:47:20;102111.03;;;-0.81;99.10
12987;BME280;58897;51.960;5.582;2022-12-18T12:49:50;102113.84;;;-0.86;99.23
12987;BME280;58897;51.960;5.582;2022-12-18T12:52:36;102103.31;;;-0.87;97.61
12987;BME280;58897;51.960;5.582;2022-12-18T12:55:19;102092.91;;;-0.92;98.16
12987;BME280;58897;51.960;5.582;2022-12-18T12:58:12;102088.44;;;-0.91;99.12
12987;BME280;58897;51.960;5.582;2022-12-18T13:06:58;102086.19;;;-0.79;98.50
12987;BME280;58897;51.960;5.582;2022-12-18T13:09:15;102095.94;;;-0.79;98.01
12987;BME280;58897;51.960;5.582;2022-12-18T13:11:45;102098.69;;;-0.82;97.36
12987;BME280;58897;51.960;5.582;2022-12-18T13:14:33;102093.19;;;-0.78;98.95
12987;BME280;58897;51.960;5.582;2022-12-18T13:19:44;102082.78;;;-0.82;98.81
12987;BME280;58897;51.960;5.582;2022-12-18T13:22:24;102082.53;;;-0.76;99.47
12987;BME280;58897;51.960;5.582;2022-12-18T13:24:51;102090.84;;;-0.85;96.93
12987;BME280;58897;51.960;5.582;2022-12-18T13:43:46;102060.00;;;-0.66;96.88
12987;BME280;58897;51.960;5.582;2022-12-18T13:46:30;102058.16;;;-0.64;98.39
12987;BME280;58897;51.960;5.582;2022-12-18T13:51:51;102058.38;;;-0.70;96.54
12987;BME280;58897;51.960;5.582;2022-12-18T13:54:33;102054.03;;;-0.71;97.25
12987;BME280;58897;51.960;5.582;2022-12-18T13:57:02;102058.34;;;-0.69;97.03
12987;BME280;58897;51.960;5.582;2022-12-18T13:59:38;102052.28;;;-0.72;96.69
12987;BME280;58897;51.960;5.582;2022-12-18T14:02:18;102047.72;;;-0.69;98.79
12987;BME280;58897;51.960;5.582;2022-12-18T14:04:48;102036.91;;;-0.64;96.58
12987;BME280;58897;51.960;5.582;2022-12-18T14:07:21;102038.00;;;-0.68;97.91
12987;BME280;58897;51.960;5.582;2022-12-18T14:09:52;102040.44;;;-0.64;98.95
12987;BME280;58897;51.960;5.582;2022-12-18T14:12:33;102035.34;;;-0.68;98.77
12987;BME280;58897;51.960;5.582;2022-12-18T14:18:09;102032.47;;;-0.64;98.49